sensor_id;sensor_type;location;lat;lon;timestamp;temperature;humidity
36206;DHT22;22242;48.796;9.930;2024-03-08T00:01:55;2.50;99.90
36206;DHT22;22242;48.796;9.930;2024-03-08T00:04:21;2.30;99.90
36206;DHT22;22242;48.796;9.930;2024-03-08T00:06:48;2.30;99.90
36206;DHT22;22242;48.796;9.930;2024-03-08T00:09:16;2.30;99.90
36206;DHT22;22242;48.796;9.930;2024-03-08T00:11:43;2.30;99.90
36206;DHT22;22242;48.796;9.930;2024-03-08T00:14:10;2.30;99.90
36206;DHT22;22242;48.796;9.930;2024-03-08T00:16:37;2.30;99.90
36206;DHT22;22242;48.796;9.930;2024-03-08T00:19:05;2.20;99.90
36206;DHT22;22242;48.796;9.930;2024-03-08T00:21:32;2.10;99.90
36206;DHT22;22242;48.796;9.930;2024-03-08T00:23:59;2.00;99.90
36206;DHT22;22242;48.796;9.930;2024-03-08T00:26:25;2.10;99.90
36206;DHT22;22242;48.796;9.930;2024-03-08T00:28:52;2.00;99.90
36206;DHT22;22242;48.796;9.930;2024-03-08T00:31:20;1.90;99.90
36206;DHT22;22242;48.796;9.930;2024-03-08T00:33:46;1.90;99.90
36206;DHT22;22242;48.796;9.930;2024-03-08T00:36:15;1.80;99.90
36206;DHT22;22242;48.796;9.930;2024-03-08T00:38:41;1.90;99.90
36206;DHT22;22242;48.796;9.930;2024-03-08T00:41:08;2.00;99.90
36206;DHT22;22242;48.796;9.930;2024-03-08T00:43:35;2.00;99.90
36206;DHT22;22242;48.796;9.930;2024-03-08T00:46:02;2.00;99.90
36206;DHT22;22242;48.796;9.930;2024-03-08T00:48:29;1.90;99.90
36206;DHT22;22242;48.796;9.930;2024-03-08T00:50:56;2.10;99.90
36206;DHT22;22242;48.796;9.930;2024-03-08T00:53:24;2.10;99.90
36206;DHT22;22242;48.796;9.930;2024-03-08T00:55:51;2.00;99.90
36206;DHT22;22242;48.796;9.930;2024-03-08T00:58:18;2.00;99.90
36206;DHT22;22242;48.796;9.930;2024-03-08T01:00:45;2.10;99.90
36206;DHT22;22242;48.796;9.930;2024-03-08T01:03:12;2.10;99.90
36206;DHT22;22242;48.796;9.930;2024-03-08T01:05:38;2.10;99.90
36206;DHT22;22242;48.796;9.930;2024-03-08T01:08:06;2.10;99.90
36206;DHT22;22242;48.796;9.930;2024-03-08T01:10:34;2.10;99.90
36206;DHT22;22242;48.796;9.930;2024-03-08T01:13:02;2.10;99.90
36206;DHT22;22242;48.796;9.930;2024-03-08T01:15:29;2.10;99.90
36206;DHT22;22242;48.796;9.930;2024-03-08T01:17:56;2.10;99.90
36206;DHT22;22242;48.796;9.930;2024-03-08T01:20:23;2.10;99.90
36206;DHT22;22242;48.796;9.930;2024-03-08T01:22:49;2.20;99.90
36206;DHT22;22242;48.796;9.930;2024-03-08T01:25:17;2.10;99.90
36206;DHT22;22242;48.796;9.930;2024-03-08T01:27:45;2.10;99.90
36206;DHT22;22242;48.796;9.930;2024-03-08T01:30:12;2.10;99.90
36206;DHT22;22242;48.796;9.930;2024-03-08T01:32:41;2.10;99.90
36206;DHT22;22242;48.796;9.930;2024-03-08T01:35:09;2.10;99.90
36206;DHT22;22242;48.796;9.930;2024-03-08T01:37:36;2.00;99.90
36206;DHT22;22242;48.796;9.930;2024-03-08T01:40:04;1.90;99.90
36206;DHT22;22242;48.796;9.930;2024-03-08T01:42:31;2.00;99.90
36206;DHT22;22242;48.796;9.930;2024-03-08T01:44:59;1.90;99.90
36206;DHT22;22242;48.796;9.930;2024-03-08T01:47:26;1.80;99.90
36206;DHT22;22242;48.796;9.930;2024-03-08T01:49:53;1.80;99.90
36206;DHT22;22242;48.796;9.930;2024-03-08T01:52:19;1.90;99.90
36206;DHT22;22242;48.796;9.930;2024-03-08T01:54:49;1.80;99.90
36206;DHT22;22242;48.796;9.930;2024-03-08T01:57:16;1.90;99.90
36206;DHT22;22242;48.796;9.930;2024-03-08T01:59:43;1.80;99.90
36206;DHT22;22242;48.796;9.930;2024-03-08T02:02:13;1.80;99.90
36206;DHT22;22242;48.796;9.930;2024-03-08T02:04:41;1.90;99.90
36206;DHT22;22242;48.796;9.930;2024-03-08T02:07:08;1.90;99.90
36206;DHT22;22242;48.796;9.930;2024-03-08T02:09:35;1.90;99.90
36206;DHT22;22242;48.796;9.930;2024-03-08T02:12:02;1.90;99.90
36206;DHT22;22242;48.796;9.930;2024-03-08T02:14:33;1.90;99.90
36206;DHT22;22242;48.796;9.930;2024-03-08T02:17:00;1.70;99.90
36206;DHT22;22242;48.796;9.930;2024-03-08T02:19:28;1.60;99.90
36206;DHT22;22242;48.796;9.930;2024-03-08T02:21:57;1.70;99.90
36206;DHT22;22242;48.796;9.930;2024-03-08T02:24:24;1.70;99.90
36206;DHT22;22242;48.796;9.930;2024-03-08T02:26:51;1.70;99.90
36206;DHT22;22242;48.796;9.930;2024-03-08T02:29:19;1.80;99.90
36206;DHT22;22242;48.796;9.930;2024-03-08T02:31:46;1.70;99.90
36206;DHT22;22242;48.796;9.930;2024-03-08T02:34:13;1.60;99.90
36206;DHT22;22242;48.796;9.930;2024-03-08T02:36:40;1.60;99.90
36206;DHT22;22242;48.796;9.930;2024-03-08T02:39:08;1.50;99.90
36206;DHT22;22242;48.796;9.930;2024-03-08T02:41:36;1.50;99.90
36206;DHT22;22242;48.796;9.930;2024-03-08T02:44:03;1.60;99.90
36206;DHT22;22242;48.796;9.930;2024-03-08T02:46:30;1.40;99.90
36206;DHT22;22242;48.796;9.930;2024-03-08T02:48:57;1.50;99.90
36206;DHT22;22242;48.796;9.930;2024-03-08T02:51:24;1.50;99.90
36206;DHT22;22242;48.796;9.930;2024-03-08T02:53:52;1.60;99.90
36206;DHT22;22242;48.796;9.930;2024-03-08T02:56:20;1.60;99.90
36206;DHT22;22242;48.796;9.930;2024-03-08T02:58:47;1.60;99.90
36206;DHT22;22242;48.796;9.930;2024-03-08T03:01:14;1.60;99.90
36206;DHT22;22242;48.796;9.930;2024-03-08T03:03:41;1.50;99.90
36206;DHT22;22242;48.796;9.930;2024-03-08T03:06:08;1.50;99.90
36206;DHT22;22242;48.796;9.930;2024-03-08T03:08:35;1.60;99.90
36206;DHT22;22242;48.796;9.930;2024-03-08T03:11:02;1.50;99.90
36206;DHT22;22242;48.796;9.930;2024-03-08T03:13:30;1.60;99.90
36206;DHT22;22242;48.796;9.930;2024-03-08T03:15:57;1.60;99.90
36206;DHT22;22242;48.796;9.930;2024-03-08T03:18:24;1.50;99.90
36206;DHT22;22242;48.796;9.930;2024-03-08T03:20:52;1.50;99.90
36206;DHT22;22242;48.796;9.930;2024-03-08T03:23:19;1.50;99.90
36206;DHT22;22242;48.796;9.930;2024-03-08T03:25:46;1.40;99.90
36206;DHT22;22242;48.796;9.930;2024-03-08T03:28:13;1.40;99.90
36206;DHT22;22242;48.796;9.930;2024-03-08T03:30:45;1.50;99.90
36206;DHT22;22242;48.796;9.930;2024-03-08T03:33:12;1.40;99.90
36206;DHT22;22242;48.796;9.930;2024-03-08T03:35:40;1.40;99.90
36206;DHT22;22242;48.796;9.930;2024-03-08T03:38:08;1.40;99.90
36206;DHT22;22242;48.796;9.930;2024-03-08T03:40:36;1.40;99.90
36206;DHT22;22242;48.796;9.930;2024-03-08T03:43:03;1.50;99.90
36206;DHT22;22242;48.796;9.930;2024-03-08T03:45:31;1.40;99.90
36206;DHT22;22242;48.796;9.930;2024-03-08T03:48:02;1.40;99.90
36206;DHT22;22242;48.796;9.930;2024-03-08T03:50:29;1.40;99.90
36206;DHT22;22242;48.796;9.930;2024-03-08T03:52:56;1.40;99.90
36206;DHT22;22242;48.796;9.930;2024-03-08T03:55:24;1.50;99.90
36206;DHT22;22242;48.796;9.930;2024-03-08T03:57:51;1.40;99.90
36206;DHT22;22242;48.796;9.930;2024-03-08T04:00:19;1.50;99.90
36206;DHT22;22242;48.796;9.930;2024-03-08T04:02:45;1.50;99.90
36206;DHT22;22242;48.796;9.930;2024-03-08T04:05:14;1.40;99.90
36206;DHT22;22242;48.796;9.930;2024-03-08T04:07:40;1.30;99.90
36206;DHT22;22242;48.796;9.930;2024-03-08T04:10:09;1.40;99.90
36206;DHT22;22242;48.796;9.930;2024-03-08T04:12:37;1.50;99.90
36206;DHT22;22242;48.796;9.930;2024-03-08T04:15:04;1.40;99.90
36206;DHT22;22242;48.796;9.930;2024-03-08T04:17:32;1.30;99.90
36206;DHT22;22242;48.796;9.930;2024-03-08T04:20:01;1.40;99.90
36206;DHT22;22242;48.796;9.930;2024-03-08T04:22:35;1.30;99.90
36206;DHT22;22242;48.796;9.930;2024-03-08T04:25:01;1.30;99.90
36206;DHT22;22242;48.796;9.930;2024-03-08T04:27:28;1.30;99.90
36206;DHT22;22242;48.796;9.930;2024-03-08T04:29:55;1.30;99.90
36206;DHT22;22242;48.796;9.930;2024-03-08T04:32:22;1.40;99.90
36206;DHT22;22242;48.796;9.930;2024-03-08T04:34:49;1.40;99.90
36206;DHT22;22242;48.796;9.930;2024-03-08T04:37:16;1.40;99.90
36206;DHT22;22242;48.796;9.930;2024-03-08T04:39:48;1.50;99.90
36206;DHT22;22242;48.796;9.930;2024-03-08T04:42:15;1.60;99.90
36206;DHT22;22242;48.796;9.930;2024-03-08T04:44:43;1.40;99.90
36206;DHT22;22242;48.796;9.930;2024-03-08T04:47:10;1.40;99.90
36206;DHT22;22242;48.796;9.930;2024-03-08T04:49:37;1.40;99.90
36206;DHT22;22242;48.796;9.930;2024-03-08T04:52:04;1.40;99.90
36206;DHT22;22242;48.796;9.930;2024-03-08T04:54:32;1.40;99.90
36206;DHT22;22242;48.796;9.930;2024-03-08T04:57:01;1.40;99.90
36206;DHT22;22242;48.796;9.930;2024-03-08T04:59:28;1.50;99.90
36206;DHT22;22242;48.796;9.930;2024-03-08T05:01:55;1.40;99.90
36206;DHT22;22242;48.796;9.930;2024-03-08T05:04:22;1.40;99.90
36206;DHT22;22242;48.796;9.930;2024-03-08T05:06:48;1.40;99.90
36206;DHT22;22242;48.796;9.930;2024-03-08T05:09:15;1.40;99.90
36206;DHT22;22242;48.796;9.930;2024-03-08T05:11:44;1.50;99.90
36206;DHT22;22242;48.796;9.930;2024-03-08T05:14:14;1.50;99.90
36206;DHT22;22242;48.796;9.930;2024-03-08T05:16:42;1.50;99.90
36206;DHT22;22242;48.796;9.930;2024-03-08T05:19:09;1.50;99.90
36206;DHT22;22242;48.796;9.930;2024-03-08T05:21:36;1.50;99.90
36206;DHT22;22242;48.796;9.930;2024-03-08T05:24:03;1.60;99.90
36206;DHT22;22242;48.796;9.930;2024-03-08T05:26:30;1.50;99.90
36206;DHT22;22242;48.796;9.930;2024-03-08T05:28:59;1.60;99.90
36206;DHT22;22242;48.796;9.930;2024-03-08T05:31:27;1.60;99.90
36206;DHT22;22242;48.796;9.930;2024-03-08T05:33:54;1.50;99.90
36206;DHT22;22242;48.796;9.930;2024-03-08T05:36:21;1.60;99.90
36206;DHT22;22242;48.796;9.930;2024-03-08T05:38:48;1.70;99.90
36206;DHT22;22242;48.796;9.930;2024-03-08T05:41:16;1.70;99.90
36206;DHT22;22242;48.796;9.930;2024-03-08T05:43:43;1.60;99.90
36206;DHT22;22242;48.796;9.930;2024-03-08T05:46:10;1.70;99.90
36206;DHT22;22242;48.796;9.930;2024-03-08T05:48:39;1.60;99.90
36206;DHT22;22242;48.796;9.930;2024-03-08T05:51:05;1.60;99.90
36206;DHT22;22242;48.796;9.930;2024-03-08T05:53:32;1.60;99.90
36206;DHT22;22242;48.796;9.930;2024-03-08T05:55:59;1.60;99.90
36206;DHT22;22242;48.796;9.930;2024-03-08T05:58:27;1.50;99.90
36206;DHT22;22242;48.796;9.930;2024-03-08T06:00:57;1.60;99.90
36206;DHT22;22242;48.796;9.930;2024-03-08T06:03:23;1.60;99.90
36206;DHT22;22242;48.796;9.930;2024-03-08T06:05:52;1.70;99.90
36206;DHT22;22242;48.796;9.930;2024-03-08T06:08:18;1.60;99.90
36206;DHT22;22242;48.796;9.930;2024-03-08T06:10:45;1.70;99.90
36206;DHT22;22242;48.796;9.930;2024-03-08T06:13:15;1.70;99.90
36206;DHT22;22242;48.796;9.930;2024-03-08T06:15:41;1.70;99.90
36206;DHT22;22242;48.796;9.930;2024-03-08T06:18:08;1.70;99.90
36206;DHT22;22242;48.796;9.930;2024-03-08T06:20:37;1.70;99.90
36206;DHT22;22242;48.796;9.930;2024-03-08T06:23:05;1.80;99.90
36206;DHT22;22242;48.796;9.930;2024-03-08T06:25:32;1.80;99.90
36206;DHT22;22242;48.796;9.930;2024-03-08T06:28:00;2.00;99.90
36206;DHT22;22242;48.796;9.930;2024-03-08T06:30:27;1.80;99.90
36206;DHT22;22242;48.796;9.930;2024-03-08T06:32:53;1.80;99.90
36206;DHT22;22242;48.796;9.930;2024-03-08T06:35:20;1.90;99.90
36206;DHT22;22242;48.796;9.930;2024-03-08T06:37:47;1.80;99.90
36206;DHT22;22242;48.796;9.930;2024-03-08T06:40:15;1.80;99.90
36206;DHT22;22242;48.796;9.930;2024-03-08T06:42:42;1.70;99.90
36206;DHT22;22242;48.796;9.930;2024-03-08T06:45:10;1.70;99.90
36206;DHT22;22242;48.796;9.930;2024-03-08T06:47:38;1.80;99.90
36206;DHT22;22242;48.796;9.930;2024-03-08T06:50:07;1.90;99.90
36206;DHT22;22242;48.796;9.930;2024-03-08T06:52:34;1.90;99.90
36206;DHT22;22242;48.796;9.930;2024-03-08T06:55:01;1.90;99.90
36206;DHT22;22242;48.796;9.930;2024-03-08T06:57:32;2.00;99.90
36206;DHT22;22242;48.796;9.930;2024-03-08T06:59:59;2.00;99.90
36206;DHT22;22242;48.796;9.930;2024-03-08T07:02:27;2.10;99.90
36206;DHT22;22242;48.796;9.930;2024-03-08T07:04:54;2.20;99.90
36206;DHT22;22242;48.796;9.930;2024-03-08T07:07:21;2.30;99.90
36206;DHT22;22242;48.796;9.930;2024-03-08T07:09:48;2.30;99.90
36206;DHT22;22242;48.796;9.930;2024-03-08T07:12:16;2.20;99.90
36206;DHT22;22242;48.796;9.930;2024-03-08T07:14:45;2.20;99.90
36206;DHT22;22242;48.796;9.930;2024-03-08T07:17:12;2.30;99.90
36206;DHT22;22242;48.796;9.930;2024-03-08T07:19:39;2.20;99.90
36206;DHT22;22242;48.796;9.930;2024-03-08T07:22:05;2.20;99.90
36206;DHT22;22242;48.796;9.930;2024-03-08T07:24:34;2.20;99.90
36206;DHT22;22242;48.796;9.930;2024-03-08T07:27:21;2.30;99.90
36206;DHT22;22242;48.796;9.930;2024-03-08T07:29:49;2.30;99.90
36206;DHT22;22242;48.796;9.930;2024-03-08T07:32:16;2.20;99.90
36206;DHT22;22242;48.796;9.930;2024-03-08T07:34:47;2.30;99.90
36206;DHT22;22242;48.796;9.930;2024-03-08T07:37:16;2.30;99.90
36206;DHT22;22242;48.796;9.930;2024-03-08T07:39:43;2.20;99.90
36206;DHT22;22242;48.796;9.930;2024-03-08T07:42:10;2.10;99.90
36206;DHT22;22242;48.796;9.930;2024-03-08T07:44:37;2.10;99.90
36206;DHT22;22242;48.796;9.930;2024-03-08T07:47:05;2.20;99.90
36206;DHT22;22242;48.796;9.930;2024-03-08T07:49:35;2.20;99.90
36206;DHT22;22242;48.796;9.930;2024-03-08T07:52:03;2.30;99.90
36206;DHT22;22242;48.796;9.930;2024-03-08T07:54:30;2.40;99.90
36206;DHT22;22242;48.796;9.930;2024-03-08T07:56:56;2.20;99.90
36206;DHT22;22242;48.796;9.930;2024-03-08T07:59:23;2.50;99.90
36206;DHT22;22242;48.796;9.930;2024-03-08T08:01:50;2.50;99.90
36206;DHT22;22242;48.796;9.930;2024-03-08T08:04:18;2.70;99.90
36206;DHT22;22242;48.796;9.930;2024-03-08T08:06:50;2.70;99.90
36206;DHT22;22242;48.796;9.930;2024-03-08T08:09:16;2.80;99.90
36206;DHT22;22242;48.796;9.930;2024-03-08T08:11:54;2.80;99.90
36206;DHT22;22242;48.796;9.930;2024-03-08T08:14:21;2.90;99.90
36206;DHT22;22242;48.796;9.930;2024-03-08T08:16:47;2.60;99.90
36206;DHT22;22242;48.796;9.930;2024-03-08T08:19:18;2.90;99.90
36206;DHT22;22242;48.796;9.930;2024-03-08T08:21:46;2.90;99.90
36206;DHT22;22242;48.796;9.930;2024-03-08T08:24:13;2.80;99.90
36206;DHT22;22242;48.796;9.930;2024-03-08T08:26:40;2.80;99.90
36206;DHT22;22242;48.796;9.930;2024-03-08T08:29:07;2.90;99.90
36206;DHT22;22242;48.796;9.930;2024-03-08T08:31:33;2.80;99.90
36206;DHT22;22242;48.796;9.930;2024-03-08T08:34:00;3.00;99.90
36206;DHT22;22242;48.796;9.930;2024-03-08T08:36:30;3.30;99.90
36206;DHT22;22242;48.796;9.930;2024-03-08T08:38:57;3.40;99.90
36206;DHT22;22242;48.796;9.930;2024-03-08T08:41:25;3.40;99.90
36206;DHT22;22242;48.796;9.930;2024-03-08T08:43:52;3.40;99.90
36206;DHT22;22242;48.796;9.930;2024-03-08T08:46:19;3.50;99.90
36206;DHT22;22242;48.796;9.930;2024-03-08T08:48:47;3.40;99.90
36206;DHT22;22242;48.796;9.930;2024-03-08T08:51:14;3.40;99.90
36206;DHT22;22242;48.796;9.930;2024-03-08T08:53:42;3.20;99.90
36206;DHT22;22242;48.796;9.930;2024-03-08T08:56:11;3.30;99.90
36206;DHT22;22242;48.796;9.930;2024-03-08T08:58:38;3.60;99.90
36206;DHT22;22242;48.796;9.930;2024-03-08T09:01:06;3.80;99.90
36206;DHT22;22242;48.796;9.930;2024-03-08T09:03:33;3.60;99.90
36206;DHT22;22242;48.796;9.930;2024-03-08T09:06:02;4.00;99.90
36206;DHT22;22242;48.796;9.930;2024-03-08T09:08:29;3.90;99.90
36206;DHT22;22242;48.796;9.930;2024-03-08T09:10:57;4.10;99.90
36206;DHT22;22242;48.796;9.930;2024-03-08T09:13:25;4.40;99.90
36206;DHT22;22242;48.796;9.930;2024-03-08T09:15:52;4.80;99.90
36206;DHT22;22242;48.796;9.930;2024-03-08T09:18:19;4.20;99.90
36206;DHT22;22242;48.796;9.930;2024-03-08T09:20:46;4.00;99.90
36206;DHT22;22242;48.796;9.930;2024-03-08T09:23:13;4.10;99.90
36206;DHT22;22242;48.796;9.930;2024-03-08T09:25:40;5.20;99.90
36206;DHT22;22242;48.796;9.930;2024-03-08T09:28:09;5.70;99.90
36206;DHT22;22242;48.796;9.930;2024-03-08T09:30:37;5.60;99.90
36206;DHT22;22242;48.796;9.930;2024-03-08T09:33:04;6.90;99.90
36206;DHT22;22242;48.796;9.930;2024-03-08T09:35:31;7.00;99.90
36206;DHT22;22242;48.796;9.930;2024-03-08T09:37:58;8.60;99.90
36206;DHT22;22242;48.796;9.930;2024-03-08T09:40:25;7.70;99.90
36206;DHT22;22242;48.796;9.930;2024-03-08T09:42:53;8.10;99.90
36206;DHT22;22242;48.796;9.930;2024-03-08T09:45:22;8.90;99.90
36206;DHT22;22242;48.796;9.930;2024-03-08T09:47:50;7.40;99.90
36206;DHT22;22242;48.796;9.930;2024-03-08T09:50:18;7.90;99.90
36206;DHT22;22242;48.796;9.930;2024-03-08T09:52:47;8.80;99.90
36206;DHT22;22242;48.796;9.930;2024-03-08T09:55:16;9.10;99.90
36206;DHT22;22242;48.796;9.930;2024-03-08T09:57:43;8.80;99.90
36206;DHT22;22242;48.796;9.930;2024-03-08T10:00:33;9.40;99.90
36206;DHT22;22242;48.796;9.930;2024-03-08T10:03:01;11.30;99.90
36206;DHT22;22242;48.796;9.930;2024-03-08T10:05:29;12.80;99.90
36206;DHT22;22242;48.796;9.930;2024-03-08T10:07:58;12.70;99.40
36206;DHT22;22242;48.796;9.930;2024-03-08T10:10:25;10.90;98.70
36206;DHT22;22242;48.796;9.930;2024-03-08T10:12:52;10.20;99.60
36206;DHT22;22242;48.796;9.930;2024-03-08T10:15:19;10.90;98.50
36206;DHT22;22242;48.796;9.930;2024-03-08T10:17:48;10.50;99.90
36206;DHT22;22242;48.796;9.930;2024-03-08T10:20:15;9.60;99.90
36206;DHT22;22242;48.796;9.930;2024-03-08T10:22:42;9.20;99.90
36206;DHT22;22242;48.796;9.930;2024-03-08T10:25:10;9.90;99.90
36206;DHT22;22242;48.796;9.930;2024-03-08T10:27:38;10.70;99.90
36206;DHT22;22242;48.796;9.930;2024-03-08T10:30:10;11.50;98.50
36206;DHT22;22242;48.796;9.930;2024-03-08T10:32:38;10.90;98.10
36206;DHT22;22242;48.796;9.930;2024-03-08T10:35:08;10.20;99.90
36206;DHT22;22242;48.796;9.930;2024-03-08T10:37:43;10.20;99.90
36206;DHT22;22242;48.796;9.930;2024-03-08T10:40:15;9.60;99.90
36206;DHT22;22242;48.796;9.930;2024-03-08T10:42:51;8.20;99.90
36206;DHT22;22242;48.796;9.930;2024-03-08T10:45:26;10.20;99.90
36206;DHT22;22242;48.796;9.930;2024-03-08T10:48:09;9.30;99.90
36206;DHT22;22242;48.796;9.930;2024-03-08T10:50:38;10.30;99.90
36206;DHT22;22242;48.796;9.930;2024-03-08T10:53:06;10.90;99.90
36206;DHT22;22242;48.796;9.930;2024-03-08T10:55:33;11.30;99.30
36206;DHT22;22242;48.796;9.930;2024-03-08T10:58:02;11.90;99.90
36206;DHT22;22242;48.796;9.930;2024-03-08T11:00:29;11.40;99.90
36206;DHT22;22242;48.796;9.930;2024-03-08T11:02:57;13.00;96.70
36206;DHT22;22242;48.796;9.930;2024-03-08T11:05:35;12.60;97.40
36206;DHT22;22242;48.796;9.930;2024-03-08T11:08:15;11.20;97.40
36206;DHT22;22242;48.796;9.930;2024-03-08T11:10:48;11.60;97.30
36206;DHT22;22242;48.796;9.930;2024-03-08T11:13:33;11.70;98.00
36206;DHT22;22242;48.796;9.930;2024-03-08T11:16:00;11.50;98.30
36206;DHT22;22242;48.796;9.930;2024-03-08T11:18:27;12.00;96.80
36206;DHT22;22242;48.796;9.930;2024-03-08T11:20:54;12.80;96.70
36206;DHT22;22242;48.796;9.930;2024-03-08T11:23:24;12.20;98.60
36206;DHT22;22242;48.796;9.930;2024-03-08T11:25:51;10.80;97.70
36206;DHT22;22242;48.796;9.930;2024-03-08T11:28:20;11.30;99.80
36206;DHT22;22242;48.796;9.930;2024-03-08T11:33:55;8.90;99.90
36206;DHT22;22242;48.796;9.930;2024-03-08T11:36:23;8.90;99.90
36206;DHT22;22242;48.796;9.930;2024-03-08T11:38:52;9.10;99.90
36206;DHT22;22242;48.796;9.930;2024-03-08T11:41:22;9.30;99.90
36206;DHT22;22242;48.796;9.930;2024-03-08T11:44:04;9.00;99.90
36206;DHT22;22242;48.796;9.930;2024-03-08T11:46:32;9.10;99.90
36206;DHT22;22242;48.796;9.930;2024-03-08T11:49:00;10.00;99.90
36206;DHT22;22242;48.796;9.930;2024-03-08T11:51:27;9.40;99.90
36206;DHT22;22242;48.796;9.930;2024-03-08T11:53:57;9.20;99.90
36206;DHT22;22242;48.796;9.930;2024-03-08T11:56:24;9.20;99.90
36206;DHT22;22242;48.796;9.930;2024-03-08T11:58:53;8.50;99.90
36206;DHT22;22242;48.796;9.930;2024-03-08T12:01:21;9.20;99.90
36206;DHT22;22242;48.796;9.930;2024-03-08T12:03:53;9.20;99.90
36206;DHT22;22242;48.796;9.930;2024-03-08T12:06:20;9.20;99.90
36206;DHT22;22242;48.796;9.930;2024-03-08T12:08:47;9.50;99.90
36206;DHT22;22242;48.796;9.930;2024-03-08T12:11:16;9.20;99.90
36206;DHT22;22242;48.796;9.930;2024-03-08T12:13:44;9.50;99.90
36206;DHT22;22242;48.796;9.930;2024-03-08T12:16:12;8.70;99.90
36206;DHT22;22242;48.796;9.930;2024-03-08T12:18:39;9.50;99.90
36206;DHT22;22242;48.796;9.930;2024-03-08T12:21:06;9.60;99.90
36206;DHT22;22242;48.796;9.930;2024-03-08T12:23:34;9.90;99.90
36206;DHT22;22242;48.796;9.930;2024-03-08T12:26:10;9.20;99.90
36206;DHT22;22242;48.796;9.930;2024-03-08T12:28:40;9.50;99.90
36206;DHT22;22242;48.796;9.930;2024-03-08T12:31:07;9.50;99.90
36206;DHT22;22242;48.796;9.930;2024-03-08T12:33:37;9.60;99.90
36206;DHT22;22242;48.796;9.930;2024-03-08T12:36:04;9.40;99.90
36206;DHT22;22242;48.796;9.930;2024-03-08T12:38:33;9.60;99.90
36206;DHT22;22242;48.796;9.930;2024-03-08T12:41:01;9.50;99.90
36206;DHT22;22242;48.796;9.930;2024-03-08T12:43:28;10.10;99.90
36206;DHT22;22242;48.796;9.930;2024-03-08T12:45:57;9.70;99.90
36206;DHT22;22242;48.796;9.930;2024-03-08T12:48:24;9.70;99.90
36206;DHT22;22242;48.796;9.930;2024-03-08T12:50:50;9.50;99.90
36206;DHT22;22242;48.796;9.930;2024-03-08T12:53:19;9.40;99.90
36206;DHT22;22242;48.796;9.930;2024-03-08T12:55:46;10.20;99.90
36206;DHT22;22242;48.796;9.930;2024-03-08T12:58:12;9.90;99.90
36206;DHT22;22242;48.796;9.930;2024-03-08T13:00:39;10.10;99.90
36206;DHT22;22242;48.796;9.930;2024-03-08T13:03:09;10.20;99.90
36206;DHT22;22242;48.796;9.930;2024-03-08T13:05:37;10.30;99.90
36206;DHT22;22242;48.796;9.930;2024-03-08T13:08:05;9.90;99.90
36206;DHT22;22242;48.796;9.930;2024-03-08T13:10:38;9.90;99.90
36206;DHT22;22242;48.796;9.930;2024-03-08T13:13:05;9.80;99.90
36206;DHT22;22242;48.796;9.930;2024-03-08T13:15:31;9.90;99.90
36206;DHT22;22242;48.796;9.930;2024-03-08T13:17:59;10.20;99.90
36206;DHT22;22242;48.796;9.930;2024-03-08T13:20:27;10.30;99.90
36206;DHT22;22242;48.796;9.930;2024-03-08T13:22:55;10.20;99.90
36206;DHT22;22242;48.796;9.930;2024-03-08T13:25:22;10.30;99.00
36206;DHT22;22242;48.796;9.930;2024-03-08T13:27:49;9.80;99.60
36206;DHT22;22242;48.796;9.930;2024-03-08T13:30:16;10.20;99.70
36206;DHT22;22242;48.796;9.930;2024-03-08T13:32:44;9.90;99.90
36206;DHT22;22242;48.796;9.930;2024-03-08T13:35:11;9.80;99.90
36206;DHT22;22242;48.796;9.930;2024-03-08T13:37:41;9.90;99.90
36206;DHT22;22242;48.796;9.930;2024-03-08T13:40:08;9.70;99.90
36206;DHT22;22242;48.796;9.930;2024-03-08T13:42:39;9.70;99.90
36206;DHT22;22242;48.796;9.930;2024-03-08T13:45:07;10.20;99.90
36206;DHT22;22242;48.796;9.930;2024-03-08T13:47:36;10.20;99.90
36206;DHT22;22242;48.796;9.930;2024-03-08T13:50:05;9.80;99.90
36206;DHT22;22242;48.796;9.930;2024-03-08T13:52:33;10.10;99.90
36206;DHT22;22242;48.796;9.930;2024-03-08T13:55:01;10.10;99.90
36206;DHT22;22242;48.796;9.930;2024-03-08T13:57:28;10.20;99.90
36206;DHT22;22242;48.796;9.930;2024-03-08T13:59:55;10.20;99.90
36206;DHT22;22242;48.796;9.930;2024-03-08T14:02:22;10.10;99.90
36206;DHT22;22242;48.796;9.930;2024-03-08T14:04:53;10.00;99.90
36206;DHT22;22242;48.796;9.930;2024-03-08T14:07:20;10.20;99.90
36206;DHT22;22242;48.796;9.930;2024-03-08T14:09:48;10.20;99.90
36206;DHT22;22242;48.796;9.930;2024-03-08T14:12:19;10.20;99.90
36206;DHT22;22242;48.796;9.930;2024-03-08T14:14:46;10.10;99.90
36206;DHT22;22242;48.796;9.930;2024-03-08T14:17:13;10.20;99.90
36206;DHT22;22242;48.796;9.930;2024-03-08T14:19:43;10.40;99.90
36206;DHT22;22242;48.796;9.930;2024-03-08T14:22:10;10.30;99.90
36206;DHT22;22242;48.796;9.930;2024-03-08T14:24:40;10.10;99.90
36206;DHT22;22242;48.796;9.930;2024-03-08T14:27:08;10.10;99.90
36206;DHT22;22242;48.796;9.930;2024-03-08T14:29:36;10.00;99.90
36206;DHT22;22242;48.796;9.930;2024-03-08T14:32:04;9.80;99.90
36206;DHT22;22242;48.796;9.930;2024-03-08T14:34:31;9.80;99.90
36206;DHT22;22242;48.796;9.930;2024-03-08T14:37:00;9.70;99.90
36206;DHT22;22242;48.796;9.930;2024-03-08T14:39:30;9.70;99.90
36206;DHT22;22242;48.796;9.930;2024-03-08T14:41:59;9.90;99.90
36206;DHT22;22242;48.796;9.930;2024-03-08T14:44:27;9.70;99.90
36206;DHT22;22242;48.796;9.930;2024-03-08T14:46:57;9.80;99.90
36206;DHT22;22242;48.796;9.930;2024-03-08T14:49:24;9.60;99.90
36206;DHT22;22242;48.796;9.930;2024-03-08T14:51:51;9.50;99.90
36206;DHT22;22242;48.796;9.930;2024-03-08T14:54:19;9.60;99.90
36206;DHT22;22242;48.796;9.930;2024-03-08T14:56:48;9.50;99.90
36206;DHT22;22242;48.796;9.930;2024-03-08T14:59:16;9.40;99.90
36206;DHT22;22242;48.796;9.930;2024-03-08T15:01:45;9.30;99.90
36206;DHT22;22242;48.796;9.930;2024-03-08T15:04:13;9.40;99.90
36206;DHT22;22242;48.796;9.930;2024-03-08T15:06:41;9.40;99.90
36206;DHT22;22242;48.796;9.930;2024-03-08T15:09:08;9.40;99.90
36206;DHT22;22242;48.796;9.930;2024-03-08T15:11:45;9.40;99.90
36206;DHT22;22242;48.796;9.930;2024-03-08T15:14:11;9.40;99.90
36206;DHT22;22242;48.796;9.930;2024-03-08T15:16:39;9.50;99.90
36206;DHT22;22242;48.796;9.930;2024-03-08T15:19:08;9.50;99.90
36206;DHT22;22242;48.796;9.930;2024-03-08T15:21:36;9.40;99.90
36206;DHT22;22242;48.796;9.930;2024-03-08T15:24:03;9.50;99.90
36206;DHT22;22242;48.796;9.930;2024-03-08T15:26:35;9.40;99.90
36206;DHT22;22242;48.796;9.930;2024-03-08T15:29:02;9.40;99.90
36206;DHT22;22242;48.796;9.930;2024-03-08T15:31:30;9.30;99.90
36206;DHT22;22242;48.796;9.930;2024-03-08T15:33:58;9.30;99.90
36206;DHT22;22242;48.796;9.930;2024-03-08T15:36:30;9.30;99.90
36206;DHT22;22242;48.796;9.930;2024-03-08T15:39:00;9.30;99.90
36206;DHT22;22242;48.796;9.930;2024-03-08T15:41:28;9.20;99.90
36206;DHT22;22242;48.796;9.930;2024-03-08T15:43:55;9.20;99.90
36206;DHT22;22242;48.796;9.930;2024-03-08T15:46:22;9.10;99.90
36206;DHT22;22242;48.796;9.930;2024-03-08T15:48:50;9.00;99.90
36206;DHT22;22242;48.796;9.930;2024-03-08T15:51:18;9.00;99.90
36206;DHT22;22242;48.796;9.930;2024-03-08T15:53:45;9.00;99.90